sensor_id;sensor_type;location;lat;lon;timestamp;pressure;altitude;pressure_sealevel;temperature;humidity
48563;BME280;34981;49.104;11.396;2022-07-10T00:01:07;96156.63;;;15.96;88.62
48563;BME280;34981;49.104;11.396;2022-07-10T00:03:35;96155.03;;;15.95;89.52
48563;BME280;34981;49.104;11.396;2022-07-10T00:06:02;96155.66;;;15.92;89.15
48563;BME280;34981;49.104;11.396;2022-07-10T00:08:29;96153.81;;;15.87;88.78
48563;BME280;34981;49.104;11.396;2022-07-10T00:10:56;96150.59;;;15.85;89.01
48563;BME280;34981;49.104;11.396;2022-07-10T00:13:23;96148.78;;;15.81;89.66
48563;BME280;34981;49.104;11.396;2022-07-10T00:15:50;96152.09;;;15.78;89.54
48563;BME280;34981;49.104;11.396;2022-07-10T00:18:17;96149.97;;;15.75;89.48
48563;BME280;34981;49.104;11.396;2022-07-10T00:20:44;96143.44;;;15.76;88.86
48563;BME280;34981;49.104;11.396;2022-07-10T00:23:12;96144.66;;;15.70;89.71
48563;BME280;34981;49.104;11.396;2022-07-10T00:25:39;96140.31;;;15.69;89.65
48563;BME280;34981;49.104;11.396;2022-07-10T00:28:06;96139.91;;;15.62;90.20
48563;BME280;34981;49.104;11.396;2022-07-10T00:30:33;96140.28;;;15.55;90.93
48563;BME280;34981;49.104;11.396;2022-07-10T00:33:00;96139.03;;;15.47;90.76
48563;BME280;34981;49.104;11.396;2022-07-10T00:35:27;96139.03;;;15.47;90.50
48563;BME280;34981;49.104;11.396;2022-07-10T00:37:54;96140.13;;;15.46;90.54
48563;BME280;34981;49.104;11.396;2022-07-10T00:40:22;96133.91;;;15.46;89.70
48563;BME280;34981;49.104;11.396;2022-07-10T00:42:49;96133.19;;;15.40;90.91
48563;BME280;34981;49.104;11.396;2022-07-10T00:45:16;96126.72;;;15.36;90.44
48563;BME280;34981;49.104;11.396;2022-07-10T00:47:43;96137.66;;;15.31;90.89
48563;BME280;34981;49.104;11.396;2022-07-10T00:50:10;96133.13;;;15.27;91.32
48563;BME280;34981;49.104;11.396;2022-07-10T00:52:39;96134.00;;;15.22;90.26
48563;BME280;34981;49.104;11.396;2022-07-10T00:55:07;96132.19;;;15.17;90.94
48563;BME280;34981;49.104;11.396;2022-07-10T00:57:35;96122.22;;;15.13;91.64
48563;BME280;34981;49.104;11.396;2022-07-10T01:00:04;96123.63;;;15.10;91.09
48563;BME280;34981;49.104;11.396;2022-07-10T01:02:31;96124.81;;;15.04;92.04
48563;BME280;34981;49.104;11.396;2022-07-10T01:04:58;96119.72;;;14.98;93.44
48563;BME280;34981;49.104;11.396;2022-07-10T01:07:26;96115.50;;;14.92;93.60
48563;BME280;34981;49.104;11.396;2022-07-10T01:09:53;96120.09;;;14.91;93.08
48563;BME280;34981;49.104;11.396;2022-07-10T01:12:20;96114.41;;;14.93;92.52
48563;BME280;34981;49.104;11.396;2022-07-10T01:14:48;96118.28;;;14.87;93.68
48563;BME280;34981;49.104;11.396;2022-07-10T01:17:15;96109.63;;;14.85;93.49
48563;BME280;34981;49.104;11.396;2022-07-10T01:19:42;96111.53;;;14.84;92.80
48563;BME280;34981;49.104;11.396;2022-07-10T01:22:09;96117.28;;;14.83;92.75
48563;BME280;34981;49.104;11.396;2022-07-10T01:24:37;96108.81;;;14.84;93.09
48563;BME280;34981;49.104;11.396;2022-07-10T01:27:04;96107.00;;;14.79;92.92
48563;BME280;34981;49.104;11.396;2022-07-10T01:29:31;96109.19;;;14.77;93.13
48563;BME280;34981;49.104;11.396;2022-07-10T01:31:59;96111.19;;;14.72;93.71
48563;BME280;34981;49.104;11.396;2022-07-10T01:34:28;96113.59;;;14.73;93.22
48563;BME280;34981;49.104;11.396;2022-07-10T01:36:55;96107.38;;;14.73;93.19
48563;BME280;34981;49.104;11.396;2022-07-10T01:39:22;96108.75;;;14.70;93.02
48563;BME280;34981;49.104;11.396;2022-07-10T01:41:49;96114.16;;;14.70;92.42
48563;BME280;34981;49.104;11.396;2022-07-10T01:44:16;96117.97;;;14.69;92.41
48563;BME280;34981;49.104;11.396;2022-07-10T01:46:44;96112.06;;;14.67;92.38
48563;BME280;34981;49.104;11.396;2022-07-10T01:49:12;96106.13;;;14.65;92.05
48563;BME280;34981;49.104;11.396;2022-07-10T01:51:39;96112.91;;;14.63;92.10
48563;BME280;34981;49.104;11.396;2022-07-10T01:54:06;96113.00;;;14.58;93.34
48563;BME280;34981;49.104;11.396;2022-07-10T01:56:33;96112.03;;;14.49;94.10
48563;BME280;34981;49.104;11.396;2022-07-10T01:59:00;96115.59;;;14.44;94.56
48563;BME280;34981;49.104;11.396;2022-07-10T02:01:30;96114.56;;;14.40;95.32
48563;BME280;34981;49.104;11.396;2022-07-10T02:03:57;96117.31;;;14.35;96.17
48563;BME280;34981;49.104;11.396;2022-07-10T02:06:43;96119.28;;;14.29;95.89
48563;BME280;34981;49.104;11.396;2022-07-10T02:09:10;96117.41;;;14.25;96.80
48563;BME280;34981;49.104;11.396;2022-07-10T02:11:38;96118.00;;;14.22;97.53
48563;BME280;34981;49.104;11.396;2022-07-10T02:14:05;96116.47;;;14.16;97.75
48563;BME280;34981;49.104;11.396;2022-07-10T02:16:32;96118.06;;;14.17;98.05
48563;BME280;34981;49.104;11.396;2022-07-10T02:18:59;96117.78;;;14.18;98.65
48563;BME280;34981;49.104;11.396;2022-07-10T02:21:26;96119.16;;;14.16;98.69
48563;BME280;34981;49.104;11.396;2022-07-10T02:23:54;96128.38;;;14.15;100.00
48563;BME280;34981;49.104;11.396;2022-07-10T02:26:21;96125.94;;;14.13;100.00
48563;BME280;34981;49.104;11.396;2022-07-10T02:28:48;96128.91;;;14.17;99.90
48563;BME280;34981;49.104;11.396;2022-07-10T02:31:15;96120.78;;;14.17;100.00
48563;BME280;34981;49.104;11.396;2022-07-10T02:33:42;96115.59;;;14.20;99.86
48563;BME280;34981;49.104;11.396;2022-07-10T02:36:09;96118.00;;;14.22;100.00
48563;BME280;34981;49.104;11.396;2022-07-10T02:38:36;96121.53;;;14.22;100.00
48563;BME280;34981;49.104;11.396;2022-07-10T02:41:04;96119.38;;;14.19;100.00
48563;BME280;34981;49.104;11.396;2022-07-10T02:43:31;96115.03;;;14.23;99.59
48563;BME280;34981;49.104;11.396;2022-07-10T02:45:58;96122.81;;;14.25;98.53
48563;BME280;34981;49.104;11.396;2022-07-10T02:48:25;96129.56;;;14.27;98.82
48563;BME280;34981;49.104;11.396;2022-07-10T02:50:53;96123.88;;;14.29;99.06
48563;BME280;34981;49.104;11.396;2022-07-10T02:53:20;96123.41;;;14.22;100.00
48563;BME280;34981;49.104;11.396;2022-07-10T02:55:47;96121.91;;;14.11;100.00
48563;BME280;34981;49.104;11.396;2022-07-10T02:58:14;96119.16;;;14.16;100.00
48563;BME280;34981;49.104;11.396;2022-07-10T03:00:42;96119.16;;;14.16;100.00
48563;BME280;34981;49.104;11.396;2022-07-10T03:03:09;96120.25;;;14.15;100.00
48563;BME280;34981;49.104;11.396;2022-07-10T03:05:36;96116.50;;;14.11;100.00
48563;BME280;34981;49.104;11.396;2022-07-10T03:08:03;96118.19;;;14.07;100.00
48563;BME280;34981;49.104;11.396;2022-07-10T03:10:31;96117.66;;;14.04;100.00
48563;BME280;34981;49.104;11.396;2022-07-10T03:12:58;96121.69;;;14.07;100.00
48563;BME280;34981;49.104;11.396;2022-07-10T03:15:25;96125.19;;;14.08;100.00
48563;BME280;34981;49.104;11.396;2022-07-10T03:17:52;96127.09;;;14.07;100.00
48563;BME280;34981;49.104;11.396;2022-07-10T03:20:19;96121.97;;;14.06;100.00
48563;BME280;34981;49.104;11.396;2022-07-10T03:22:46;96115.22;;;14.03;100.00
48563;BME280;34981;49.104;11.396;2022-07-10T03:25:14;96121.22;;;14.00;100.00
48563;BME280;34981;49.104;11.396;2022-07-10T03:27:41;96125.81;;;13.99;100.00
48563;BME280;34981;49.104;11.396;2022-07-10T03:30:08;96124.69;;;14.06;100.00
48563;BME280;34981;49.104;11.396;2022-07-10T03:32:35;96130.88;;;14.06;100.00
48563;BME280;34981;49.104;11.396;2022-07-10T03:35:03;96127.66;;;14.04;100.00
48563;BME280;34981;49.104;11.396;2022-07-10T03:37:30;96132.25;;;14.03;100.00
48563;BME280;34981;49.104;11.396;2022-07-10T03:39:57;96139.53;;;14.08;100.00
48563;BME280;34981;49.104;11.396;2022-07-10T03:42:24;96135.75;;;14.09;100.00
48563;BME280;34981;49.104;11.396;2022-07-10T03:44:51;96133.84;;;14.10;100.00
48563;BME280;34981;49.104;11.396;2022-07-10T03:47:18;96128.94;;;14.12;100.00
48563;BME280;34981;49.104;11.396;2022-07-10T03:49:47;96131.13;;;14.10;100.00
48563;BME280;34981;49.104;11.396;2022-07-10T03:52:14;96130.09;;;14.06;100.00
48563;BME280;34981;49.104;11.396;2022-07-10T03:54:41;96132.72;;;14.11;100.00
48563;BME280;34981;49.104;11.396;2022-07-10T03:57:08;96129.22;;;14.10;100.00
48563;BME280;34981;49.104;11.396;2022-07-10T03:59:54;96130.97;;;14.01;100.00
48563;BME280;34981;49.104;11.396;2022-07-10T04:02:21;96130.97;;;14.01;100.00
48563;BME280;34981;49.104;11.396;2022-07-10T04:04:48;96139.88;;;14.01;100.00
48563;BME280;34981;49.104;11.396;2022-07-10T04:07:15;96129.56;;;14.03;100.00
48563;BME280;34981;49.104;11.396;2022-07-10T04:09:43;96129.06;;;14.01;100.00
48563;BME280;34981;49.104;11.396;2022-07-10T04:12:10;96122.84;;;14.01;100.00
48563;BME280;34981;49.104;11.396;2022-07-10T04:14:37;96125.81;;;13.99;100.00
48563;BME280;34981;49.104;11.396;2022-07-10T04:17:04;96131.69;;;14.07;100.00
48563;BME280;34981;49.104;11.396;2022-07-10T04:19:32;96129.53;;;14.09;100.00
48563;BME280;34981;49.104;11.396;2022-07-10T04:21:59;96133.31;;;14.08;100.00
48563;BME280;34981;49.104;11.396;2022-07-10T04:24:26;96128.13;;;14.11;100.00
48563;BME280;34981;49.104;11.396;2022-07-10T04:26:53;96125.41;;;14.11;100.00
48563;BME280;34981;49.104;11.396;2022-07-10T04:29:20;96125.13;;;14.13;100.00
48563;BME280;34981;49.104;11.396;2022-07-10T04:31:47;96123.06;;;14.04;100.00
48563;BME280;34981;49.104;11.396;2022-07-10T04:34:14;96121.41;;;14.09;100.00
48563;BME280;34981;49.104;11.396;2022-07-10T04:36:44;96129.28;;;14.05;100.00
48563;BME280;34981;49.104;11.396;2022-07-10T04:39:11;96134.47;;;14.01;100.00
48563;BME280;34981;49.104;11.396;2022-07-10T04:41:38;96133.31;;;14.08;100.00
48563;BME280;34981;49.104;11.396;2022-07-10T04:44:05;96132.91;;;14.19;100.00
48563;BME280;34981;49.104;11.396;2022-07-10T04:46:32;96125.25;;;14.26;100.00
48563;BME280;34981;49.104;11.396;2022-07-10T04:49:00;96122.19;;;14.38;100.00
48563;BME280;34981;49.104;11.396;2022-07-10T04:51:27;96124.81;;;14.43;100.00
48563;BME280;34981;49.104;11.396;2022-07-10T04:53:54;96121.31;;;14.43;100.00
48563;BME280;34981;49.104;11.396;2022-07-10T04:56:21;96126.19;;;14.40;99.31
48563;BME280;34981;49.104;11.396;2022-07-10T04:58:48;96127.00;;;14.41;99.58
48563;BME280;34981;49.104;11.396;2022-07-10T05:01:19;96122.09;;;14.43;100.00
48563;BME280;34981;49.104;11.396;2022-07-10T05:03:46;96131.94;;;14.58;100.00
48563;BME280;34981;49.104;11.396;2022-07-10T05:06:14;96125.06;;;14.65;99.88
48563;BME280;34981;49.104;11.396;2022-07-10T05:08:41;96127.34;;;14.96;100.00
48563;BME280;34981;49.104;11.396;2022-07-10T05:11:09;96132.47;;;15.16;97.27
48563;BME280;34981;49.104;11.396;2022-07-10T05:13:36;96133.56;;;15.34;94.97
48563;BME280;34981;49.104;11.396;2022-07-10T05:16:04;96136.75;;;15.36;92.96
48563;BME280;34981;49.104;11.396;2022-07-10T05:18:31;96140.13;;;15.46;91.79
48563;BME280;34981;49.104;11.396;2022-07-10T05:20:58;96132.47;;;15.67;90.40
48563;BME280;34981;49.104;11.396;2022-07-10T05:23:25;96115.03;;;15.87;89.43
48563;BME280;34981;49.104;11.396;2022-07-10T05:25:53;96120.72;;;16.18;88.08
48563;BME280;34981;49.104;11.396;2022-07-10T05:28:20;96132.19;;;16.28;84.65
48563;BME280;34981;49.104;11.396;2022-07-10T05:30:47;96127.47;;;16.61;83.31
48563;BME280;34981;49.104;11.396;2022-07-10T05:33:16;96135.50;;;16.80;81.66
48563;BME280;34981;49.104;11.396;2022-07-10T05:35:43;96139.47;;;16.96;79.72
48563;BME280;34981;49.104;11.396;2022-07-10T05:38:10;96146.88;;;17.04;77.84
48563;BME280;34981;49.104;11.396;2022-07-10T05:40:37;96139.41;;;17.10;75.57
48563;BME280;34981;49.104;11.396;2022-07-10T05:43:04;96136.53;;;17.06;74.28
48563;BME280;34981;49.104;11.396;2022-07-10T05:45:31;96139.03;;;17.39;73.81
48563;BME280;34981;49.104;11.396;2022-07-10T05:47:58;96138.03;;;17.35;72.57
48563;BME280;34981;49.104;11.396;2022-07-10T05:50:25;96145.44;;;15.19;78.81
48563;BME280;34981;49.104;11.396;2022-07-10T05:52:52;96150.03;;;15.00;82.27
48563;BME280;34981;49.104;11.396;2022-07-10T05:55:20;96150.16;;;15.46;78.86
48563;BME280;34981;49.104;11.396;2022-07-10T05:57:47;96143.59;;;15.14;79.45
48563;BME280;34981;49.104;11.396;2022-07-10T06:00:14;96150.69;;;14.73;81.97
48563;BME280;34981;49.104;11.396;2022-07-10T06:02:41;96148.38;;;14.14;83.91
48563;BME280;34981;49.104;11.396;2022-07-10T06:05:08;96155.78;;;13.74;86.64
48563;BME280;34981;49.104;11.396;2022-07-10T06:07:35;96167.50;;;14.22;86.07
48563;BME280;34981;49.104;11.396;2022-07-10T06:10:03;96175.97;;;13.87;87.78
48563;BME280;34981;49.104;11.396;2022-07-10T06:12:31;96175.25;;;14.29;85.66
48563;BME280;34981;49.104;11.396;2022-07-10T06:14:58;96178.97;;;14.33;83.97
48563;BME280;34981;49.104;11.396;2022-07-10T06:17:25;96172.75;;;14.32;83.75
48563;BME280;34981;49.104;11.396;2022-07-10T06:19:53;96176.66;;;14.93;82.54
48563;BME280;34981;49.104;11.396;2022-07-10T06:22:21;96179.22;;;15.03;80.79
48563;BME280;34981;49.104;11.396;2022-07-10T06:25:01;96177.75;;;14.92;79.00
48563;BME280;34981;49.104;11.396;2022-07-10T06:27:29;96182.88;;;13.98;81.13
48563;BME280;34981;49.104;11.396;2022-07-10T06:29:56;96186.69;;;14.21;81.77
48563;BME280;34981;49.104;11.396;2022-07-10T06:32:24;96186.31;;;14.03;81.60
48563;BME280;34981;49.104;11.396;2022-07-10T06:34:51;96189.75;;;13.85;83.38
48563;BME280;34981;49.104;11.396;2022-07-10T06:37:19;96181.09;;;14.41;81.25
48563;BME280;34981;49.104;11.396;2022-07-10T06:39:47;96186.91;;;14.96;80.67
48563;BME280;34981;49.104;11.396;2022-07-10T06:42:17;96185.22;;;15.00;75.73
48563;BME280;34981;49.104;11.396;2022-07-10T06:44:48;96182.41;;;14.67;77.76
48563;BME280;34981;49.104;11.396;2022-07-10T06:47:16;96173.78;;;14.84;76.22
48563;BME280;34981;49.104;11.396;2022-07-10T06:50:07;96173.56;;;14.38;79.15
48563;BME280;34981;49.104;11.396;2022-07-10T06:52:35;96172.72;;;14.37;79.81
48563;BME280;34981;49.104;11.396;2022-07-10T06:55:03;96180.84;;;14.61;76.41
48563;BME280;34981;49.104;11.396;2022-07-10T06:57:30;96182.69;;;14.66;76.00
48563;BME280;34981;49.104;11.396;2022-07-10T06:59:57;96177.16;;;15.13;75.32
48563;BME280;34981;49.104;11.396;2022-07-10T07:02:25;96171.69;;;15.00;73.14
48563;BME280;34981;49.104;11.396;2022-07-10T07:04:52;96180.59;;;14.82;75.17
48563;BME280;34981;49.104;11.396;2022-07-10T07:07:22;96184.25;;;14.72;74.97
48563;BME280;34981;49.104;11.396;2022-07-10T07:09:51;96187.50;;;14.21;75.18
48563;BME280;34981;49.104;11.396;2022-07-10T07:12:19;96184.53;;;14.23;76.04
48563;BME280;34981;49.104;11.396;2022-07-10T07:14:46;96175.84;;;14.73;74.37
48563;BME280;34981;49.104;11.396;2022-07-10T07:17:14;96170.72;;;14.91;74.02
48563;BME280;34981;49.104;11.396;2022-07-10T07:19:48;96176.25;;;15.04;73.98
48563;BME280;34981;49.104;11.396;2022-07-10T07:22:34;96185.06;;;14.20;74.41
48563;BME280;34981;49.104;11.396;2022-07-10T07:25:20;96175.56;;;15.12;74.91
48563;BME280;34981;49.104;11.396;2022-07-10T07:27:47;96177.84;;;15.62;72.91
48563;BME280;34981;49.104;11.396;2022-07-10T07:30:15;96177.38;;;16.19;68.66
48563;BME280;34981;49.104;11.396;2022-07-10T07:32:45;96178.34;;;15.96;67.34
48563;BME280;34981;49.104;11.396;2022-07-10T07:35:13;96177.53;;;15.95;69.50
48563;BME280;34981;49.104;11.396;2022-07-10T07:40:08;96177.34;;;15.41;64.42
48563;BME280;34981;49.104;11.396;2022-07-10T07:42:36;96175.19;;;16.49;66.40
48563;BME280;34981;49.104;11.396;2022-07-10T07:45:03;96181.72;;;15.88;61.91
48563;BME280;34981;49.104;11.396;2022-07-10T07:47:31;96189.75;;;16.53;61.48
48563;BME280;34981;49.104;11.396;2022-07-10T07:50:01;96191.34;;;16.40;61.22
48563;BME280;34981;49.104;11.396;2022-07-10T07:52:29;96197.38;;;15.77;59.91
48563;BME280;34981;49.104;11.396;2022-07-10T07:54:58;96198.94;;;16.84;59.52
48563;BME280;34981;49.104;11.396;2022-07-10T07:57:25;96191.88;;;16.56;60.78
48563;BME280;34981;49.104;11.396;2022-07-10T07:59:52;96206.38;;;16.65;55.93
48563;BME280;34981;49.104;11.396;2022-07-10T08:02:19;96209.88;;;15.92;59.24
48563;BME280;34981;49.104;11.396;2022-07-10T08:04:46;96204.09;;;16.12;57.92
48563;BME280;34981;49.104;11.396;2022-07-10T08:07:14;96207.91;;;16.11;55.51
48563;BME280;34981;49.104;11.396;2022-07-10T08:09:41;96204.59;;;15.82;58.67
48563;BME280;34981;49.104;11.396;2022-07-10T08:12:08;96198.47;;;15.57;57.13
48563;BME280;34981;49.104;11.396;2022-07-10T08:14:35;96195.13;;;15.98;59.18
48563;BME280;34981;49.104;11.396;2022-07-10T08:17:02;96198.63;;;15.99;57.31
48563;BME280;34981;49.104;11.396;2022-07-10T08:19:30;96207.34;;;15.44;57.08
48563;BME280;34981;49.104;11.396;2022-07-10T08:21:57;96209.84;;;15.60;58.94
48563;BME280;34981;49.104;11.396;2022-07-10T08:24:24;96213.34;;;15.60;57.45
48563;BME280;34981;49.104;11.396;2022-07-10T08:26:51;96201.69;;;16.24;56.32
48563;BME280;34981;49.104;11.396;2022-07-10T08:29:18;96196.53;;;16.09;54.46
48563;BME280;34981;49.104;11.396;2022-07-10T08:31:46;96196.72;;;16.72;55.45
48563;BME280;34981;49.104;11.396;2022-07-10T08:34:15;96194.75;;;16.18;54.20
48563;BME280;34981;49.104;11.396;2022-07-10T08:36:42;96196.75;;;16.13;54.47
48563;BME280;34981;49.104;11.396;2022-07-10T08:39:17;96199.13;;;15.49;56.55
48563;BME280;34981;49.104;11.396;2022-07-10T08:41:47;96205.56;;;14.97;60.37
48563;BME280;34981;49.104;11.396;2022-07-10T08:44:17;96201.53;;;14.95;58.81
48563;BME280;34981;49.104;11.396;2022-07-10T08:46:45;96199.09;;;15.54;60.44
48563;BME280;34981;49.104;11.396;2022-07-10T08:49:12;96194.38;;;16.39;56.79
48563;BME280;34981;49.104;11.396;2022-07-10T08:51:46;96194.25;;;16.30;53.56
48563;BME280;34981;49.104;11.396;2022-07-10T08:54:22;96189.44;;;16.13;53.04
48563;BME280;34981;49.104;11.396;2022-07-10T08:56:49;96192.59;;;16.61;51.43
48563;BME280;34981;49.104;11.396;2022-07-10T08:59:17;96192.69;;;16.43;53.36
48563;BME280;34981;49.104;11.396;2022-07-10T09:01:45;96188.88;;;16.44;57.88
48563;BME280;34981;49.104;11.396;2022-07-10T09:04:18;96204.25;;;16.02;56.26
48563;BME280;34981;49.104;11.396;2022-07-10T09:06:45;96201.81;;;15.87;56.92
48563;BME280;34981;49.104;11.396;2022-07-10T09:09:12;96197.06;;;15.79;54.92
48563;BME280;34981;49.104;11.396;2022-07-10T09:11:40;96193.34;;;15.00;54.99
48563;BME280;34981;49.104;11.396;2022-07-10T09:14:10;96202.44;;;15.46;54.21
48563;BME280;34981;49.104;11.396;2022-07-10T09:16:39;96190.19;;;15.68;53.06
48563;BME280;34981;49.104;11.396;2022-07-10T09:19:26;96192.19;;;15.94;52.32
48563;BME280;34981;49.104;11.396;2022-07-10T09:21:54;96191.38;;;15.94;51.42
48563;BME280;34981;49.104;11.396;2022-07-10T09:24:21;96203.53;;;16.29;50.26
48563;BME280;34981;49.104;11.396;2022-07-10T09:29:21;96193.97;;;16.31;53.36
48563;BME280;34981;49.104;11.396;2022-07-10T09:31:49;96204.28;;;16.16;50.16
48563;BME280;34981;49.104;11.396;2022-07-10T09:34:18;96204.19;;;15.75;52.25
48563;BME280;34981;49.104;11.396;2022-07-10T09:37:22;96201.69;;;16.38;52.21
48563;BME280;34981;49.104;11.396;2022-07-10T09:39:52;96210.78;;;16.74;48.75
48563;BME280;34981;49.104;11.396;2022-07-10T09:47:43;96211.34;;;16.30;50.98
48563;BME280;34981;49.104;11.396;2022-07-10T09:52:52;96200.19;;;16.46;49.66
48563;BME280;34981;49.104;11.396;2022-07-10T09:55:20;96209.69;;;16.62;46.90
48563;BME280;34981;49.104;11.396;2022-07-10T09:57:55;96206.53;;;16.96;48.82
48563;BME280;34981;49.104;11.396;2022-07-10T10:00:23;96212.47;;;17.47;47.06
48563;BME280;34981;49.104;11.396;2022-07-10T10:03:18;96211.34;;;17.12;48.93
48563;BME280;34981;49.104;11.396;2022-07-10T10:05:55;96204.53;;;16.47;48.21
48563;BME280;34981;49.104;11.396;2022-07-10T10:10:51;96210.56;;;16.98;45.01
48563;BME280;34981;49.104;11.396;2022-07-10T10:13:19;96205.19;;;17.57;45.48
48563;BME280;34981;49.104;11.396;2022-07-10T10:15:47;96210.03;;;17.60;45.79
48563;BME280;34981;49.104;11.396;2022-07-10T10:18:19;96218.75;;;16.85;47.39
48563;BME280;34981;49.104;11.396;2022-07-10T10:20:48;96207.78;;;16.76;47.86
48563;BME280;34981;49.104;11.396;2022-07-10T10:23:16;96213.59;;;16.56;50.82
48563;BME280;34981;49.104;11.396;2022-07-10T10:25:47;96213.56;;;16.28;48.34
48563;BME280;34981;49.104;11.396;2022-07-10T10:28:14;96210.56;;;16.44;48.53
48563;BME280;34981;49.104;11.396;2022-07-10T10:30:43;96213.31;;;16.85;47.74
48563;BME280;34981;49.104;11.396;2022-07-10T10:35:58;96207.97;;;18.32;43.80
48563;BME280;34981;49.104;11.396;2022-07-10T10:46:37;96212.78;;;16.42;48.57
48563;BME280;34981;49.104;11.396;2022-07-10T10:49:21;96207.50;;;16.64;47.97
48563;BME280;34981;49.104;11.396;2022-07-10T10:51:56;96202.94;;;16.73;46.27
48563;BME280;34981;49.104;11.396;2022-07-10T10:54:24;96203.94;;;16.50;47.17
48563;BME280;34981;49.104;11.396;2022-07-10T11:00:11;96202.72;;;16.56;48.40
48563;BME280;34981;49.104;11.396;2022-07-10T11:02:37;96203.75;;;16.87;46.25
48563;BME280;34981;49.104;11.396;2022-07-10T11:07:54;96203.16;;;16.63;46.69
48563;BME280;34981;49.104;11.396;2022-07-10T11:10:31;96201.75;;;16.65;46.98
48563;BME280;34981;49.104;11.396;2022-07-10T11:15:26;96208.97;;;16.84;46.76
48563;BME280;34981;49.104;11.396;2022-07-10T11:17:59;96210.59;;;16.71;47.63
48563;BME280;34981;49.104;11.396;2022-07-10T11:20:36;96206.13;;;16.48;47.71
48563;BME280;34981;49.104;11.396;2022-07-10T11:25:36;96197.28;;;16.28;45.31
48563;BME280;34981;49.104;11.396;2022-07-10T11:28:10;96209.16;;;16.60;47.69
48563;BME280;34981;49.104;11.396;2022-07-10T11:30:51;96211.00;;;16.78;47.80
48563;BME280;34981;49.104;11.396;2022-07-10T11:33:20;96201.56;;;17.75;45.55
48563;BME280;34981;49.104;11.396;2022-07-10T11:35:50;96198.59;;;17.49;44.61
48563;BME280;34981;49.104;11.396;2022-07-10T11:38:20;96203.38;;;16.80;45.47
48563;BME280;34981;49.104;11.396;2022-07-10T11:40:48;96203.94;;;17.04;47.63
48563;BME280;34981;49.104;11.396;2022-07-10T11:43:15;96201.41;;;16.26;47.36
48563;BME280;34981;49.104;11.396;2022-07-10T11:45:44;96203.13;;;16.49;46.37
48563;BME280;34981;49.104;11.396;2022-07-10T11:48:18;96205.34;;;16.47;46.61
48563;BME280;34981;49.104;11.396;2022-07-10T11:50:46;96210.38;;;16.81;48.88
48563;BME280;34981;49.104;11.396;2022-07-10T11:53:28;96205.63;;;17.50;47.34
48563;BME280;34981;49.104;11.396;2022-07-10T11:55:56;96204.56;;;16.74;47.92
48563;BME280;34981;49.104;11.396;2022-07-10T11:58:23;96205.38;;;16.61;47.32
48563;BME280;34981;49.104;11.396;2022-07-10T12:00:57;96218.28;;;16.36;48.48
48563;BME280;34981;49.104;11.396;2022-07-10T12:03:28;96209.25;;;16.55;49.46
48563;BME280;34981;49.104;11.396;2022-07-10T12:06:00;96216.22;;;16.61;48.49
48563;BME280;34981;49.104;11.396;2022-07-10T12:08:41;96211.28;;;16.03;50.71
48563;BME280;34981;49.104;11.396;2022-07-10T12:11:27;96216.59;;;16.41;51.13
48563;BME280;34981;49.104;11.396;2022-07-10T12:14:14;96214.22;;;16.66;50.81
48563;BME280;34981;49.104;11.396;2022-07-10T12:17:26;96217.81;;;16.89;49.98
48563;BME280;34981;49.104;11.396;2022-07-10T12:20:02;96213.19;;;17.03;49.84
48563;BME280;34981;49.104;11.396;2022-07-10T12:22:30;96218.38;;;16.45;50.04
48563;BME280;34981;49.104;11.396;2022-07-10T12:24:57;96219.44;;;16.63;50.79
48563;BME280;34981;49.104;11.396;2022-07-10T12:27:41;96215.97;;;17.12;50.29
48563;BME280;34981;49.104;11.396;2022-07-10T12:30:09;96214.47;;;17.20;48.63
48563;BME280;34981;49.104;11.396;2022-07-10T12:32:36;96214.41;;;16.70;49.78
48563;BME280;34981;49.104;11.396;2022-07-10T12:35:03;96208.53;;;17.18;48.57
48563;BME280;34981;49.104;11.396;2022-07-10T12:37:32;96212.78;;;16.96;47.82
48563;BME280;34981;49.104;11.396;2022-07-10T12:39:59;96209.03;;;17.20;46.81
48563;BME280;34981;49.104;11.396;2022-07-10T12:42:27;96214.88;;;17.49;47.82
48563;BME280;34981;49.104;11.396;2022-07-10T12:45:08;96216.22;;;16.88;47.86
48563;BME280;34981;49.104;11.396;2022-07-10T12:47:45;96223.03;;;17.13;48.26
48563;BME280;34981;49.104;11.396;2022-07-10T12:50:13;96215.19;;;17.83;47.21
48563;BME280;34981;49.104;11.396;2022-07-10T12:52:41;96210.53;;;17.26;47.99
48563;BME280;34981;49.104;11.396;2022-07-10T12:55:09;96212.66;;;16.47;49.07
48563;BME280;34981;49.104;11.396;2022-07-10T12:57:59;96215.19;;;16.98;49.99
48563;BME280;34981;49.104;11.396;2022-07-10T13:00:26;96227.16;;;17.10;48.41
48563;BME280;34981;49.104;11.396;2022-07-10T13:02:57;96225.06;;;16.66;49.73
48563;BME280;34981;49.104;11.396;2022-07-10T13:05:25;96231.09;;;16.63;49.37
48563;BME280;34981;49.104;11.396;2022-07-10T13:08:14;96228.78;;;16.11;50.63
48563;BME280;34981;49.104;11.396;2022-07-10T13:10:50;96230.50;;;16.66;50.71
48563;BME280;34981;49.104;11.396;2022-07-10T13:13:18;96228.78;;;16.98;51.73
48563;BME280;34981;49.104;11.396;2022-07-10T13:15:45;96216.81;;;16.58;51.66
48563;BME280;34981;49.104;11.396;2022-07-10T13:18:17;96221.06;;;16.64;50.84
48563;BME280;34981;49.104;11.396;2022-07-10T13:20:45;96220.00;;;17.15;50.13
48563;BME280;34981;49.104;11.396;2022-07-10T13:23:12;96215.97;;;17.12;48.77
48563;BME280;34981;49.104;11.396;2022-07-10T13:25:40;96220.41;;;17.22;50.05
48563;BME280;34981;49.104;11.396;2022-07-10T13:28:08;96213.50;;;16.88;50.99
48563;BME280;34981;49.104;11.396;2022-07-10T13:30:36;96211.41;;;17.71;50.07
48563;BME280;34981;49.104;11.396;2022-07-10T13:33:03;96212.00;;;17.32;50.64
48563;BME280;34981;49.104;11.396;2022-07-10T13:35:30;96212.59;;;17.78;48.66